^^
Paulen-Weather Station Historical Data
Daily Summary for May 18, 2022 Units:  English    Metric   Both
Daily Weekly Monthly Yearly Custom
  High: Low: Average:
Temperature: 53.6 °F 50 °F 52.2 °F
Dew Point: 44.6 °F 41 °F 43.3 °F
Humidity: 78% 64% 72%
Wind Speed: 9.9mph 1.9mph 5.6mph
Wind Gust: 7.5mph - -
Wind- - ENE
Pressure: 30.3 in 30.2 in -
Precipitation: 0 in    
Historical Graphs
 
 
Tabular Data for May 18, 2022
Time Temperature Dew Point Pressure Wind Wind Speed Wind Gust Humidity Rainfall Rate (Hourly) solar
00:04 53.6 °F 41 °F 30.2 in N 8.1 mph 6.8 mph 64% 0 in 0 W/m2
00:09 53.6 °F 42.8 °F 30.2 in NNE 7.5 mph 6.8 mph 64% 0 in 0 W/m2
00:14 53.6 °F 41 °F 30.2 in NNE 8.1 mph 6.2 mph 64% 0 in 0 W/m2
00:19 53.6 °F 42.8 °F 30.2 in ENE 6.8 mph 4.3 mph 65% 0 in 0 W/m2
00:24 53.6 °F 42.8 °F 30.2 in NNE 6.8 mph 6.2 mph 66% 0 in 0 W/m2
00:29 53.6 °F 42.8 °F 30.2 in N 9.9 mph 7.5 mph 66% 0 in 0 W/m2
00:34 53.6 °F 42.8 °F 30.2 in NNE 8.1 mph 6.8 mph 66% 0 in 0 W/m2
00:39 53.6 °F 42.8 °F 30.2 in NE 7.5 mph 6.2 mph 66% 0 in 0 W/m2
00:44 53.6 °F 42.8 °F 30.3 in NE 4.3 mph 3.1 mph 67% 0 in 0 W/m2
00:49 53.6 °F 42.8 °F 30.2 in NE 8.1 mph 6.2 mph 67% 0 in 0 W/m2
00:54 53.6 °F 42.8 °F 30.2 in N 8.7 mph 6.8 mph 68% 0 in 0 W/m2
00:59 53.6 °F 42.8 °F 30.2 in NNE 7.5 mph 5.6 mph 68% 0 in 0 W/m2
01:04 53.6 °F 42.8 °F 30.2 in N 7.5 mph 6.2 mph 69% 0 in 0 W/m2
01:09 53.6 °F 44.6 °F 30.2 in NNE 9.3 mph 6.2 mph 70% 0 in 0 W/m2
01:14 53.6 °F 44.6 °F 30.2 in NNE 8.1 mph 6.2 mph 71% 0 in 0 W/m2
01:19 53.6 °F 44.6 °F 30.2 in NNE 8.1 mph 6.2 mph 71% 0 in 0 W/m2
01:24 53.6 °F 44.6 °F 30.2 in NNE 7.5 mph 6.2 mph 71% 0 in 0 W/m2
01:29 53.6 °F 44.6 °F 30.2 in NNE 6.2 mph 5.6 mph 72% 0 in 0 W/m2
01:34 53.6 °F 44.6 °F 30.3 in NE 6.2 mph 5.6 mph 73% 0 in 0 W/m2
01:39 51.8 °F 44.6 °F 30.3 in N 6.2 mph 5 mph 73% 0 in 0 W/m2
01:44 51.8 °F 44.6 °F 30.3 in NE 5.6 mph 5 mph 72% 0 in 0 W/m2
01:49 51.8 °F 42.8 °F 30.3 in NE 5.6 mph 5 mph 71% 0 in 0 W/m2
01:54 51.8 °F 42.8 °F 30.3 in NE 4.3 mph 3.7 mph 71% 0 in 0 W/m2
01:59 51.8 °F 42.8 °F 30.3 in ENE 3.7 mph 2.5 mph 71% 0 in 0 W/m2
02:04 51.8 °F 42.8 °F 30.2 in ENE 3.1 mph 3.1 mph 71% 0 in 0 W/m2
02:09 51.8 °F 42.8 °F 30.2 in NNE 3.7 mph 3.1 mph 71% 0 in 0 W/m2
02:14 51.8 °F 42.8 °F 30.3 in N 3.7 mph 3.7 mph 72% 0 in 0 W/m2
02:19 51.8 °F 42.8 °F 30.3 in N 4.3 mph 3.7 mph 74% 0 in 0 W/m2
02:24 51.8 °F 42.8 °F 30.2 in N 4.3 mph 4.3 mph 73% 0 in 0 W/m2
02:29 51.8 °F 42.8 °F 30.2 in N 5 mph 4.3 mph 71% 0 in 0 W/m2
02:34 51.8 °F 42.8 °F 30.2 in NNE 5 mph 4.3 mph 71% 0 in 0 W/m2
02:39 51.8 °F 42.8 °F 30.2 in N 5 mph 3.7 mph 72% 0 in 0 W/m2
02:44 51.8 °F 42.8 °F 30.2 in N 4.3 mph 4.3 mph 72% 0 in 0 W/m2
02:49 51.8 °F 42.8 °F 30.2 in NNE 6.2 mph 6.2 mph 71% 0 in 0 W/m2
02:54 51.8 °F 42.8 °F 30.2 in NNE 5 mph 5 mph 72% 0 in 0 W/m2
02:59 51.8 °F 42.8 °F 30.2 in N 3.1 mph 2.5 mph 72% 0 in 0 W/m2
03:04 51.8 °F 42.8 °F 30.2 in NE 2.5 mph 1.9 mph 72% 0 in 0 W/m2
03:09 51.8 °F 42.8 °F 30.2 in NNE 1.9 mph 3.1 mph 72% 0 in 0 W/m2
03:14 51.8 °F 42.8 °F 30.2 in N 3.7 mph 3.1 mph 74% 0 in 0 W/m2
03:19 51.8 °F 44.6 °F 30.2 in NNW 5 mph 5.6 mph 76% 0 in 0 W/m2
03:24 50 °F 44.6 °F 30.2 in N 5 mph 5 mph 76% 0 in 0 W/m2
03:29 50 °F 42.8 °F 30.2 in N 4.3 mph 4.3 mph 76% 0 in 0 W/m2
03:34 50 °F 42.8 °F 30.2 in N 5 mph 4.3 mph 76% 0 in 0 W/m2
03:39 50 °F 42.8 °F 30.2 in NNE 2.5 mph 1.9 mph 76% 0 in 0 W/m2
03:44 51.8 °F 44.6 °F 30.2 in N 3.7 mph 4.3 mph 76% 0 in 0 W/m2
03:49 51.8 °F 44.6 °F 30.2 in N 4.3 mph 4.3 mph 78% 0 in 0 W/m2
03:54 50 °F 44.6 °F 30.2 in N 6.8 mph 6.2 mph 78% 0 in 0 W/m2
03:59 50 °F 44.6 °F 30.2 in N 6.2 mph 6.2 mph 78% 0 in 0 W/m2
04:04 50 °F 42.8 °F 30.2 in N 3.7 mph 4.3 mph 77% 0 in 0 W/m2
04:09 50 °F 42.8 °F 30.2 in N 5 mph 4.3 mph 77% 0 in 0 W/m2
04:14 50 °F 44.6 °F 30.2 in N 5 mph 5.6 mph 77% 0 in 0 W/m2
04:19 50 °F 44.6 °F 30.2 in NNE 4.3 mph 5 mph 77% 0 in 0 W/m2
Compliments of Weather Underground - 2 mb